sensor_id;sensor_type;location;lat;lon;timestamp;temperature;humidity
12568;DHT22;6349;50.904;6.136;2023-06-10T00:01:31;20.50;99.90
12568;DHT22;6349;50.904;6.136;2023-06-10T00:03:32;20.50;99.90
12568;DHT22;6349;50.904;6.136;2023-06-10T00:05:33;20.50;99.90
12568;DHT22;6349;50.904;6.136;2023-06-10T00:07:35;20.60;99.90
12568;DHT22;6349;50.904;6.136;2023-06-10T00:09:38;20.50;99.90
12568;DHT22;6349;50.904;6.136;2023-06-10T00:11:40;20.50;99.90
12568;DHT22;6349;50.904;6.136;2023-06-10T00:13:40;20.50;99.90
12568;DHT22;6349;50.904;6.136;2023-06-10T00:15:41;20.50;99.90
12568;DHT22;6349;50.904;6.136;2023-06-10T00:17:41;20.40;99.90
12568;DHT22;6349;50.904;6.136;2023-06-10T00:19:42;20.40;99.90
12568;DHT22;6349;50.904;6.136;2023-06-10T00:21:44;20.30;99.90
12568;DHT22;6349;50.904;6.136;2023-06-10T00:23:45;20.30;99.90
12568;DHT22;6349;50.904;6.136;2023-06-10T00:25:46;20.30;99.90
12568;DHT22;6349;50.904;6.136;2023-06-10T00:27:46;20.20;99.90
12568;DHT22;6349;50.904;6.136;2023-06-10T00:29:47;20.30;99.90
12568;DHT22;6349;50.904;6.136;2023-06-10T00:31:47;20.30;99.90
12568;DHT22;6349;50.904;6.136;2023-06-10T00:33:48;20.30;99.90
12568;DHT22;6349;50.904;6.136;2023-06-10T00:35:48;20.30;99.90
12568;DHT22;6349;50.904;6.136;2023-06-10T00:37:49;20.20;99.90
12568;DHT22;6349;50.904;6.136;2023-06-10T00:39:50;20.30;99.90
12568;DHT22;6349;50.904;6.136;2023-06-10T00:41:50;20.20;99.90
12568;DHT22;6349;50.904;6.136;2023-06-10T00:43:51;20.20;99.90
12568;DHT22;6349;50.904;6.136;2023-06-10T00:45:52;20.20;99.90
12568;DHT22;6349;50.904;6.136;2023-06-10T00:47:52;20.20;99.90
12568;DHT22;6349;50.904;6.136;2023-06-10T00:49:53;20.10;99.90
12568;DHT22;6349;50.904;6.136;2023-06-10T00:51:54;20.10;99.90
12568;DHT22;6349;50.904;6.136;2023-06-10T00:53:55;20.10;99.90
12568;DHT22;6349;50.904;6.136;2023-06-10T00:55:56;20.10;99.90
12568;DHT22;6349;50.904;6.136;2023-06-10T00:57:57;20.00;99.90
12568;DHT22;6349;50.904;6.136;2023-06-10T00:59:58;20.10;99.90
12568;DHT22;6349;50.904;6.136;2023-06-10T01:01:59;20.00;99.90
12568;DHT22;6349;50.904;6.136;2023-06-10T01:03:59;20.10;99.90
12568;DHT22;6349;50.904;6.136;2023-06-10T01:06:13;20.00;99.90
12568;DHT22;6349;50.904;6.136;2023-06-10T01:08:35;20.00;99.90
12568;DHT22;6349;50.904;6.136;2023-06-10T01:10:43;20.00;99.90
12568;DHT22;6349;50.904;6.136;2023-06-10T01:12:52;20.00;99.90
12568;DHT22;6349;50.904;6.136;2023-06-10T01:14:55;20.00;99.90
12568;DHT22;6349;50.904;6.136;2023-06-10T01:16:55;20.00;99.90
12568;DHT22;6349;50.904;6.136;2023-06-10T01:18:57;19.90;99.90
12568;DHT22;6349;50.904;6.136;2023-06-10T01:20:58;19.90;99.90
12568;DHT22;6349;50.904;6.136;2023-06-10T01:22:59;19.90;99.90
12568;DHT22;6349;50.904;6.136;2023-06-10T01:25:01;19.80;99.90
12568;DHT22;6349;50.904;6.136;2023-06-10T01:27:07;19.70;99.90
12568;DHT22;6349;50.904;6.136;2023-06-10T01:29:14;19.70;99.90
12568;DHT22;6349;50.904;6.136;2023-06-10T01:31:27;19.60;99.90
12568;DHT22;6349;50.904;6.136;2023-06-10T01:33:38;19.60;99.90
12568;DHT22;6349;50.904;6.136;2023-06-10T01:35:41;19.50;99.90
12568;DHT22;6349;50.904;6.136;2023-06-10T01:37:46;19.40;99.90
12568;DHT22;6349;50.904;6.136;2023-06-10T01:39:48;19.30;99.90
12568;DHT22;6349;50.904;6.136;2023-06-10T01:41:49;19.30;99.90
12568;DHT22;6349;50.904;6.136;2023-06-10T01:43:51;19.30;99.90
12568;DHT22;6349;50.904;6.136;2023-06-10T01:45:51;19.30;99.90
12568;DHT22;6349;50.904;6.136;2023-06-10T01:47:52;19.20;99.90
12568;DHT22;6349;50.904;6.136;2023-06-10T01:49:52;19.30;99.90
12568;DHT22;6349;50.904;6.136;2023-06-10T01:51:53;19.20;99.90
12568;DHT22;6349;50.904;6.136;2023-06-10T01:53:53;19.20;99.90
12568;DHT22;6349;50.904;6.136;2023-06-10T01:55:54;19.20;99.90
12568;DHT22;6349;50.904;6.136;2023-06-10T01:57:55;19.30;99.90
12568;DHT22;6349;50.904;6.136;2023-06-10T01:59:55;19.20;99.90
12568;DHT22;6349;50.904;6.136;2023-06-10T02:01:56;19.20;99.90
12568;DHT22;6349;50.904;6.136;2023-06-10T02:03:57;19.20;99.90
12568;DHT22;6349;50.904;6.136;2023-06-10T02:05:57;19.30;99.90
12568;DHT22;6349;50.904;6.136;2023-06-10T02:07:58;19.20;99.90
12568;DHT22;6349;50.904;6.136;2023-06-10T02:09:58;19.20;99.90
12568;DHT22;6349;50.904;6.136;2023-06-10T02:11:59;19.20;99.90
12568;DHT22;6349;50.904;6.136;2023-06-10T02:13:59;19.20;99.90
12568;DHT22;6349;50.904;6.136;2023-06-10T02:16:00;19.20;99.90
12568;DHT22;6349;50.904;6.136;2023-06-10T02:18:01;19.20;99.90
12568;DHT22;6349;50.904;6.136;2023-06-10T02:20:03;19.20;99.90
12568;DHT22;6349;50.904;6.136;2023-06-10T02:22:04;19.20;99.90
12568;DHT22;6349;50.904;6.136;2023-06-10T02:24:05;19.20;99.90
12568;DHT22;6349;50.904;6.136;2023-06-10T02:26:06;19.20;99.90
12568;DHT22;6349;50.904;6.136;2023-06-10T02:28:06;19.20;99.90
12568;DHT22;6349;50.904;6.136;2023-06-10T02:30:07;19.20;99.90
12568;DHT22;6349;50.904;6.136;2023-06-10T02:32:11;19.10;99.90
12568;DHT22;6349;50.904;6.136;2023-06-10T02:34:12;19.00;99.90
12568;DHT22;6349;50.904;6.136;2023-06-10T02:36:12;18.90;99.90
12568;DHT22;6349;50.904;6.136;2023-06-10T02:38:13;18.80;99.90
12568;DHT22;6349;50.904;6.136;2023-06-10T02:40:14;18.80;99.90
12568;DHT22;6349;50.904;6.136;2023-06-10T02:42:14;18.70;99.90
12568;DHT22;6349;50.904;6.136;2023-06-10T02:44:15;18.70;99.90
12568;DHT22;6349;50.904;6.136;2023-06-10T02:46:16;18.60;99.90
12568;DHT22;6349;50.904;6.136;2023-06-10T02:48:16;18.60;99.90
12568;DHT22;6349;50.904;6.136;2023-06-10T02:50:17;18.50;99.90
12568;DHT22;6349;50.904;6.136;2023-06-10T02:52:17;18.40;99.90
12568;DHT22;6349;50.904;6.136;2023-06-10T02:54:18;18.50;99.90
12568;DHT22;6349;50.904;6.136;2023-06-10T02:56:18;18.50;99.90
12568;DHT22;6349;50.904;6.136;2023-06-10T02:58:19;18.50;99.90
12568;DHT22;6349;50.904;6.136;2023-06-10T03:00:21;18.60;99.90
12568;DHT22;6349;50.904;6.136;2023-06-10T03:02:22;18.60;99.90
12568;DHT22;6349;50.904;6.136;2023-06-10T03:04:28;18.60;99.90
12568;DHT22;6349;50.904;6.136;2023-06-10T03:06:31;18.60;99.90
12568;DHT22;6349;50.904;6.136;2023-06-10T03:08:34;18.60;99.90
12568;DHT22;6349;50.904;6.136;2023-06-10T03:10:34;18.60;99.90
12568;DHT22;6349;50.904;6.136;2023-06-10T03:12:35;18.60;99.90
12568;DHT22;6349;50.904;6.136;2023-06-10T03:14:35;18.60;99.90
12568;DHT22;6349;50.904;6.136;2023-06-10T03:16:36;18.60;99.90
12568;DHT22;6349;50.904;6.136;2023-06-10T03:18:40;18.60;99.90
12568;DHT22;6349;50.904;6.136;2023-06-10T03:20:41;18.60;99.90
12568;DHT22;6349;50.904;6.136;2023-06-10T03:22:42;18.60;99.90
12568;DHT22;6349;50.904;6.136;2023-06-10T03:24:43;18.60;99.90
12568;DHT22;6349;50.904;6.136;2023-06-10T03:26:44;18.70;99.90
12568;DHT22;6349;50.904;6.136;2023-06-10T03:28:44;18.60;99.90
12568;DHT22;6349;50.904;6.136;2023-06-10T03:30:45;18.60;99.90
12568;DHT22;6349;50.904;6.136;2023-06-10T03:32:45;18.60;99.90
12568;DHT22;6349;50.904;6.136;2023-06-10T03:34:46;18.60;99.90
12568;DHT22;6349;50.904;6.136;2023-06-10T03:36:48;18.50;99.90
12568;DHT22;6349;50.904;6.136;2023-06-10T03:38:49;18.40;99.90
12568;DHT22;6349;50.904;6.136;2023-06-10T03:40:52;18.50;99.90
12568;DHT22;6349;50.904;6.136;2023-06-10T03:42:52;18.50;99.90
12568;DHT22;6349;50.904;6.136;2023-06-10T03:44:53;18.50;99.90
12568;DHT22;6349;50.904;6.136;2023-06-10T03:46:55;18.60;99.90
12568;DHT22;6349;50.904;6.136;2023-06-10T03:48:56;18.60;99.90
12568;DHT22;6349;50.904;6.136;2023-06-10T03:50:57;18.60;99.90
12568;DHT22;6349;50.904;6.136;2023-06-10T03:52:58;18.60;99.90
12568;DHT22;6349;50.904;6.136;2023-06-10T03:54:59;18.60;99.90
12568;DHT22;6349;50.904;6.136;2023-06-10T03:57:01;18.60;99.90
12568;DHT22;6349;50.904;6.136;2023-06-10T03:59:01;18.70;99.90
12568;DHT22;6349;50.904;6.136;2023-06-10T04:01:02;18.70;99.90
12568;DHT22;6349;50.904;6.136;2023-06-10T04:03:02;18.70;99.90
12568;DHT22;6349;50.904;6.136;2023-06-10T04:05:04;18.60;99.90
12568;DHT22;6349;50.904;6.136;2023-06-10T04:07:05;18.60;99.90
12568;DHT22;6349;50.904;6.136;2023-06-10T04:09:05;18.50;99.90
12568;DHT22;6349;50.904;6.136;2023-06-10T04:11:06;18.50;99.90
12568;DHT22;6349;50.904;6.136;2023-06-10T04:13:07;18.50;99.90
12568;DHT22;6349;50.904;6.136;2023-06-10T04:15:08;18.30;99.90
12568;DHT22;6349;50.904;6.136;2023-06-10T04:17:08;18.30;99.90
12568;DHT22;6349;50.904;6.136;2023-06-10T04:19:09;18.30;99.90
12568;DHT22;6349;50.904;6.136;2023-06-10T04:21:09;18.20;99.90
12568;DHT22;6349;50.904;6.136;2023-06-10T04:23:10;18.20;99.90
12568;DHT22;6349;50.904;6.136;2023-06-10T04:25:11;18.20;99.90
12568;DHT22;6349;50.904;6.136;2023-06-10T04:27:12;18.20;99.90
12568;DHT22;6349;50.904;6.136;2023-06-10T04:29:12;18.20;99.90
12568;DHT22;6349;50.904;6.136;2023-06-10T04:31:13;18.30;99.90
12568;DHT22;6349;50.904;6.136;2023-06-10T04:33:14;18.30;99.90
12568;DHT22;6349;50.904;6.136;2023-06-10T04:35:15;18.30;99.90
12568;DHT22;6349;50.904;6.136;2023-06-10T04:37:16;18.30;99.90
12568;DHT22;6349;50.904;6.136;2023-06-10T04:39:16;18.40;99.90
12568;DHT22;6349;50.904;6.136;2023-06-10T04:41:17;18.40;99.90
12568;DHT22;6349;50.904;6.136;2023-06-10T04:43:19;18.40;99.90
12568;DHT22;6349;50.904;6.136;2023-06-10T04:45:20;18.40;99.90
12568;DHT22;6349;50.904;6.136;2023-06-10T04:47:20;18.40;99.90
12568;DHT22;6349;50.904;6.136;2023-06-10T04:49:21;18.40;99.90
12568;DHT22;6349;50.904;6.136;2023-06-10T04:51:21;18.40;99.90
12568;DHT22;6349;50.904;6.136;2023-06-10T04:53:22;18.50;99.90
12568;DHT22;6349;50.904;6.136;2023-06-10T04:55:23;18.50;99.90
12568;DHT22;6349;50.904;6.136;2023-06-10T04:57:23;18.50;99.90
12568;DHT22;6349;50.904;6.136;2023-06-10T04:59:24;18.50;99.90
12568;DHT22;6349;50.904;6.136;2023-06-10T05:01:25;18.50;99.90
12568;DHT22;6349;50.904;6.136;2023-06-10T05:03:26;18.50;99.90
12568;DHT22;6349;50.904;6.136;2023-06-10T05:05:27;18.40;99.90
12568;DHT22;6349;50.904;6.136;2023-06-10T05:07:27;18.50;99.90
12568;DHT22;6349;50.904;6.136;2023-06-10T05:09:28;18.50;99.90
12568;DHT22;6349;50.904;6.136;2023-06-10T05:11:28;18.50;99.90
12568;DHT22;6349;50.904;6.136;2023-06-10T05:13:29;18.60;99.90
12568;DHT22;6349;50.904;6.136;2023-06-10T05:15:30;18.60;99.90
12568;DHT22;6349;50.904;6.136;2023-06-10T05:17:31;18.60;99.90
12568;DHT22;6349;50.904;6.136;2023-06-10T05:19:32;18.70;99.90
12568;DHT22;6349;50.904;6.136;2023-06-10T05:21:32;18.80;99.90
12568;DHT22;6349;50.904;6.136;2023-06-10T05:23:33;18.90;99.90
12568;DHT22;6349;50.904;6.136;2023-06-10T05:25:33;18.90;99.90
12568;DHT22;6349;50.904;6.136;2023-06-10T05:27:35;19.00;99.90
12568;DHT22;6349;50.904;6.136;2023-06-10T05:29:36;19.10;99.90
12568;DHT22;6349;50.904;6.136;2023-06-10T05:31:36;19.20;99.90
12568;DHT22;6349;50.904;6.136;2023-06-10T05:33:37;19.30;99.90
12568;DHT22;6349;50.904;6.136;2023-06-10T05:35:38;19.30;99.90
12568;DHT22;6349;50.904;6.136;2023-06-10T05:37:39;19.30;99.90
12568;DHT22;6349;50.904;6.136;2023-06-10T05:39:39;19.40;99.90
12568;DHT22;6349;50.904;6.136;2023-06-10T05:41:40;19.40;99.90
12568;DHT22;6349;50.904;6.136;2023-06-10T05:43:41;19.50;99.90
12568;DHT22;6349;50.904;6.136;2023-06-10T05:45:42;19.50;99.90
12568;DHT22;6349;50.904;6.136;2023-06-10T05:47:43;19.60;99.90
12568;DHT22;6349;50.904;6.136;2023-06-10T05:49:43;19.60;99.90
12568;DHT22;6349;50.904;6.136;2023-06-10T05:51:46;19.70;99.90
12568;DHT22;6349;50.904;6.136;2023-06-10T05:53:46;19.70;99.90
12568;DHT22;6349;50.904;6.136;2023-06-10T05:55:47;19.70;99.90
12568;DHT22;6349;50.904;6.136;2023-06-10T05:57:58;19.90;99.90
12568;DHT22;6349;50.904;6.136;2023-06-10T05:59:59;19.90;99.90
12568;DHT22;6349;50.904;6.136;2023-06-10T06:02:00;20.00;99.90
12568;DHT22;6349;50.904;6.136;2023-06-10T06:04:00;20.10;99.90
12568;DHT22;6349;50.904;6.136;2023-06-10T06:06:02;20.10;99.90
12568;DHT22;6349;50.904;6.136;2023-06-10T06:08:03;20.20;99.90
12568;DHT22;6349;50.904;6.136;2023-06-10T06:10:04;20.30;99.90
12568;DHT22;6349;50.904;6.136;2023-06-10T06:12:05;20.40;99.90
12568;DHT22;6349;50.904;6.136;2023-06-10T06:14:07;20.50;99.90
12568;DHT22;6349;50.904;6.136;2023-06-10T06:16:08;20.50;99.90
12568;DHT22;6349;50.904;6.136;2023-06-10T06:18:08;20.60;99.90
12568;DHT22;6349;50.904;6.136;2023-06-10T06:20:09;20.70;99.90
12568;DHT22;6349;50.904;6.136;2023-06-10T06:22:10;20.70;99.90
12568;DHT22;6349;50.904;6.136;2023-06-10T06:24:11;20.90;99.90
12568;DHT22;6349;50.904;6.136;2023-06-10T06:26:11;20.90;99.90
12568;DHT22;6349;50.904;6.136;2023-06-10T06:28:12;21.00;99.90
12568;DHT22;6349;50.904;6.136;2023-06-10T06:30:13;21.00;99.90
12568;DHT22;6349;50.904;6.136;2023-06-10T06:32:13;21.10;99.90
12568;DHT22;6349;50.904;6.136;2023-06-10T06:34:14;21.20;99.90
12568;DHT22;6349;50.904;6.136;2023-06-10T06:36:14;21.30;99.90
12568;DHT22;6349;50.904;6.136;2023-06-10T06:38:15;21.40;99.90
12568;DHT22;6349;50.904;6.136;2023-06-10T06:40:15;21.50;99.90
12568;DHT22;6349;50.904;6.136;2023-06-10T06:42:16;21.70;99.90
12568;DHT22;6349;50.904;6.136;2023-06-10T06:44:17;21.60;99.90
12568;DHT22;6349;50.904;6.136;2023-06-10T06:46:17;21.70;99.90
12568;DHT22;6349;50.904;6.136;2023-06-10T06:48:18;21.80;99.90
12568;DHT22;6349;50.904;6.136;2023-06-10T06:50:19;21.80;99.90
12568;DHT22;6349;50.904;6.136;2023-06-10T06:52:19;21.90;99.90
12568;DHT22;6349;50.904;6.136;2023-06-10T06:54:20;22.00;99.90
12568;DHT22;6349;50.904;6.136;2023-06-10T06:56:20;22.00;99.90
12568;DHT22;6349;50.904;6.136;2023-06-10T06:58:21;22.10;99.90
12568;DHT22;6349;50.904;6.136;2023-06-10T07:00:22;22.20;99.90
12568;DHT22;6349;50.904;6.136;2023-06-10T07:02:22;22.30;99.90
12568;DHT22;6349;50.904;6.136;2023-06-10T07:04:23;22.30;99.90
12568;DHT22;6349;50.904;6.136;2023-06-10T07:06:24;22.40;99.90
12568;DHT22;6349;50.904;6.136;2023-06-10T07:08:26;22.50;99.90
12568;DHT22;6349;50.904;6.136;2023-06-10T07:10:28;22.50;99.90
12568;DHT22;6349;50.904;6.136;2023-06-10T07:12:28;22.60;99.90
12568;DHT22;6349;50.904;6.136;2023-06-10T07:14:29;22.60;99.90
12568;DHT22;6349;50.904;6.136;2023-06-10T07:16:30;22.70;99.90
12568;DHT22;6349;50.904;6.136;2023-06-10T07:18:30;22.70;99.90
12568;DHT22;6349;50.904;6.136;2023-06-10T07:20:31;22.80;99.90
12568;DHT22;6349;50.904;6.136;2023-06-10T07:22:31;22.80;99.90
12568;DHT22;6349;50.904;6.136;2023-06-10T07:24:32;22.90;99.90
12568;DHT22;6349;50.904;6.136;2023-06-10T07:26:32;22.90;99.90
12568;DHT22;6349;50.904;6.136;2023-06-10T07:28:33;23.00;99.90
12568;DHT22;6349;50.904;6.136;2023-06-10T07:30:34;23.10;99.90
12568;DHT22;6349;50.904;6.136;2023-06-10T07:32:34;23.10;99.90
12568;DHT22;6349;50.904;6.136;2023-06-10T07:34:35;23.10;99.90
12568;DHT22;6349;50.904;6.136;2023-06-10T07:36:35;23.30;99.90
12568;DHT22;6349;50.904;6.136;2023-06-10T07:38:36;23.30;99.90
12568;DHT22;6349;50.904;6.136;2023-06-10T07:40:37;23.40;99.90
12568;DHT22;6349;50.904;6.136;2023-06-10T07:42:38;23.40;99.90
12568;DHT22;6349;50.904;6.136;2023-06-10T07:44:38;23.50;99.90
12568;DHT22;6349;50.904;6.136;2023-06-10T07:46:39;23.40;99.90
12568;DHT22;6349;50.904;6.136;2023-06-10T07:48:39;23.50;99.90
12568;DHT22;6349;50.904;6.136;2023-06-10T07:50:40;23.50;99.90
12568;DHT22;6349;50.904;6.136;2023-06-10T07:52:41;23.60;99.90
12568;DHT22;6349;50.904;6.136;2023-06-10T07:54:41;23.70;99.90
12568;DHT22;6349;50.904;6.136;2023-06-10T07:56:42;23.70;99.90
12568;DHT22;6349;50.904;6.136;2023-06-10T07:58:42;23.70;99.90
12568;DHT22;6349;50.904;6.136;2023-06-10T08:00:43;23.90;99.90
12568;DHT22;6349;50.904;6.136;2023-06-10T08:02:44;23.90;99.90
12568;DHT22;6349;50.904;6.136;2023-06-10T08:04:44;24.00;99.90
12568;DHT22;6349;50.904;6.136;2023-06-10T08:06:45;23.90;99.90
12568;DHT22;6349;50.904;6.136;2023-06-10T08:08:45;23.90;99.90
12568;DHT22;6349;50.904;6.136;2023-06-10T08:10:46;23.90;99.90
12568;DHT22;6349;50.904;6.136;2023-06-10T08:12:47;24.00;99.90
12568;DHT22;6349;50.904;6.136;2023-06-10T08:14:47;24.10;99.90
12568;DHT22;6349;50.904;6.136;2023-06-10T08:16:48;24.10;99.90
12568;DHT22;6349;50.904;6.136;2023-06-10T08:18:48;24.20;99.90
12568;DHT22;6349;50.904;6.136;2023-06-10T08:20:50;24.30;99.90
12568;DHT22;6349;50.904;6.136;2023-06-10T08:22:51;24.30;99.90
12568;DHT22;6349;50.904;6.136;2023-06-10T08:24:52;24.40;99.90
12568;DHT22;6349;50.904;6.136;2023-06-10T08:26:52;24.40;99.90
12568;DHT22;6349;50.904;6.136;2023-06-10T08:28:53;24.40;99.90
12568;DHT22;6349;50.904;6.136;2023-06-10T08:30:54;24.30;99.90
12568;DHT22;6349;50.904;6.136;2023-06-10T08:32:55;24.40;99.90
12568;DHT22;6349;50.904;6.136;2023-06-10T08:34:56;24.40;99.90
12568;DHT22;6349;50.904;6.136;2023-06-10T08:36:56;24.50;99.90
12568;DHT22;6349;50.904;6.136;2023-06-10T08:38:57;24.40;99.90
12568;DHT22;6349;50.904;6.136;2023-06-10T08:40:59;24.50;99.90
12568;DHT22;6349;50.904;6.136;2023-06-10T08:43:08;24.60;99.90
12568;DHT22;6349;50.904;6.136;2023-06-10T08:45:17;24.60;99.90
12568;DHT22;6349;50.904;6.136;2023-06-10T08:47:19;24.70;99.90
12568;DHT22;6349;50.904;6.136;2023-06-10T08:49:23;24.70;99.90
12568;DHT22;6349;50.904;6.136;2023-06-10T08:51:26;24.80;99.90
12568;DHT22;6349;50.904;6.136;2023-06-10T08:53:29;24.90;99.90
12568;DHT22;6349;50.904;6.136;2023-06-10T08:55:40;24.90;99.90
12568;DHT22;6349;50.904;6.136;2023-06-10T08:57:42;25.00;99.90
12568;DHT22;6349;50.904;6.136;2023-06-10T08:59:45;25.10;99.90
12568;DHT22;6349;50.904;6.136;2023-06-10T09:01:47;25.20;99.90
12568;DHT22;6349;50.904;6.136;2023-06-10T09:03:48;25.20;99.90
12568;DHT22;6349;50.904;6.136;2023-06-10T09:05:49;25.20;99.90
12568;DHT22;6349;50.904;6.136;2023-06-10T09:07:52;25.20;99.90
12568;DHT22;6349;50.904;6.136;2023-06-10T09:09:54;25.20;99.90
12568;DHT22;6349;50.904;6.136;2023-06-10T09:11:56;25.20;99.90
12568;DHT22;6349;50.904;6.136;2023-06-10T09:13:56;25.30;99.90
12568;DHT22;6349;50.904;6.136;2023-06-10T09:15:57;25.30;99.90
12568;DHT22;6349;50.904;6.136;2023-06-10T09:18:01;25.30;99.90
12568;DHT22;6349;50.904;6.136;2023-06-10T09:20:02;25.30;99.90
12568;DHT22;6349;50.904;6.136;2023-06-10T09:22:03;25.40;99.90
12568;DHT22;6349;50.904;6.136;2023-06-10T09:24:05;25.50;99.90
12568;DHT22;6349;50.904;6.136;2023-06-10T09:26:09;25.60;99.90
12568;DHT22;6349;50.904;6.136;2023-06-10T09:28:15;25.60;99.90
12568;DHT22;6349;50.904;6.136;2023-06-10T09:30:29;25.70;99.90
12568;DHT22;6349;50.904;6.136;2023-06-10T09:32:30;25.70;99.90
12568;DHT22;6349;50.904;6.136;2023-06-10T09:34:31;25.80;99.90
12568;DHT22;6349;50.904;6.136;2023-06-10T09:36:33;25.80;99.90
12568;DHT22;6349;50.904;6.136;2023-06-10T09:38:35;25.90;99.90
12568;DHT22;6349;50.904;6.136;2023-06-10T09:40:48;25.90;99.90
12568;DHT22;6349;50.904;6.136;2023-06-10T09:42:55;26.00;99.90
12568;DHT22;6349;50.904;6.136;2023-06-10T09:44:56;26.00;99.90
12568;DHT22;6349;50.904;6.136;2023-06-10T09:46:57;26.10;99.90
12568;DHT22;6349;50.904;6.136;2023-06-10T09:48:59;26.10;99.90
12568;DHT22;6349;50.904;6.136;2023-06-10T09:51:00;26.10;99.90
12568;DHT22;6349;50.904;6.136;2023-06-10T09:53:01;26.20;99.90
12568;DHT22;6349;50.904;6.136;2023-06-10T09:55:04;26.20;99.90
12568;DHT22;6349;50.904;6.136;2023-06-10T09:57:08;26.30;99.90
12568;DHT22;6349;50.904;6.136;2023-06-10T09:59:12;26.30;99.90
12568;DHT22;6349;50.904;6.136;2023-06-10T10:01:14;26.30;99.90
12568;DHT22;6349;50.904;6.136;2023-06-10T10:03:22;26.40;99.90
12568;DHT22;6349;50.904;6.136;2023-06-10T10:05:23;26.50;99.90
12568;DHT22;6349;50.904;6.136;2023-06-10T10:07:24;26.50;99.90
12568;DHT22;6349;50.904;6.136;2023-06-10T10:09:25;26.60;99.90
12568;DHT22;6349;50.904;6.136;2023-06-10T10:11:26;26.70;99.90
12568;DHT22;6349;50.904;6.136;2023-06-10T10:13:28;26.80;99.90
12568;DHT22;6349;50.904;6.136;2023-06-10T10:15:31;26.80;99.90
12568;DHT22;6349;50.904;6.136;2023-06-10T10:17:40;26.90;99.90
12568;DHT22;6349;50.904;6.136;2023-06-10T10:19:46;27.00;99.90
12568;DHT22;6349;50.904;6.136;2023-06-10T10:22:00;26.90;99.90
12568;DHT22;6349;50.904;6.136;2023-06-10T10:24:07;26.90;99.90
12568;DHT22;6349;50.904;6.136;2023-06-10T10:26:10;26.90;99.90
12568;DHT22;6349;50.904;6.136;2023-06-10T10:28:12;26.90;99.90
12568;DHT22;6349;50.904;6.136;2023-06-10T10:30:17;27.00;99.90
12568;DHT22;6349;50.904;6.136;2023-06-10T10:32:18;27.00;99.90
12568;DHT22;6349;50.904;6.136;2023-06-10T10:34:37;27.10;99.90
12568;DHT22;6349;50.904;6.136;2023-06-10T10:36:40;27.10;99.90
12568;DHT22;6349;50.904;6.136;2023-06-10T10:38:41;27.10;99.90
12568;DHT22;6349;50.904;6.136;2023-06-10T10:40:44;27.10;99.90
12568;DHT22;6349;50.904;6.136;2023-06-10T10:42:48;27.10;99.90
12568;DHT22;6349;50.904;6.136;2023-06-10T10:44:50;27.20;99.90
12568;DHT22;6349;50.904;6.136;2023-06-10T10:46:51;27.30;99.90
12568;DHT22;6349;50.904;6.136;2023-06-10T10:48:53;27.40;99.90
12568;DHT22;6349;50.904;6.136;2023-06-10T10:50:57;27.40;99.90
12568;DHT22;6349;50.904;6.136;2023-06-10T10:53:01;27.40;99.90
12568;DHT22;6349;50.904;6.136;2023-06-10T10:55:01;27.50;99.90
12568;DHT22;6349;50.904;6.136;2023-06-10T10:59:14;27.70;99.90
12568;DHT22;6349;50.904;6.136;2023-06-10T11:01:18;27.80;99.90
12568;DHT22;6349;50.904;6.136;2023-06-10T11:03:20;27.80;99.90
12568;DHT22;6349;50.904;6.136;2023-06-10T11:05:41;27.70;99.90
12568;DHT22;6349;50.904;6.136;2023-06-10T11:07:55;27.80;99.90
12568;DHT22;6349;50.904;6.136;2023-06-10T11:12:00;27.70;99.90
12568;DHT22;6349;50.904;6.136;2023-06-10T11:16:04;27.80;99.90
12568;DHT22;6349;50.904;6.136;2023-06-10T11:20:12;27.80;99.90
12568;DHT22;6349;50.904;6.136;2023-06-10T11:22:58;27.90;99.90
12568;DHT22;6349;50.904;6.136;2023-06-10T11:24:59;28.00;99.90
12568;DHT22;6349;50.904;6.136;2023-06-10T11:29:20;28.10;99.90
12568;DHT22;6349;50.904;6.136;2023-06-10T11:31:32;28.10;99.90
12568;DHT22;6349;50.904;6.136;2023-06-10T11:33:33;28.10;99.90
12568;DHT22;6349;50.904;6.136;2023-06-10T11:35:38;28.10;99.90
12568;DHT22;6349;50.904;6.136;2023-06-10T11:37:40;28.10;99.90
12568;DHT22;6349;50.904;6.136;2023-06-10T11:39:41;28.20;99.90
12568;DHT22;6349;50.904;6.136;2023-06-10T11:41:41;28.30;99.90
12568;DHT22;6349;50.904;6.136;2023-06-10T11:43:46;28.40;99.90
12568;DHT22;6349;50.904;6.136;2023-06-10T11:45:47;28.50;99.90
12568;DHT22;6349;50.904;6.136;2023-06-10T11:47:58;28.60;99.90
12568;DHT22;6349;50.904;6.136;2023-06-10T11:49:58;28.60;99.90
12568;DHT22;6349;50.904;6.136;2023-06-10T11:51:59;28.60;99.90
12568;DHT22;6349;50.904;6.136;2023-06-10T11:54:00;28.60;99.90
12568;DHT22;6349;50.904;6.136;2023-06-10T11:56:01;28.60;99.90
12568;DHT22;6349;50.904;6.136;2023-06-10T11:58:02;28.70;99.90
12568;DHT22;6349;50.904;6.136;2023-06-10T12:00:06;28.80;99.90
12568;DHT22;6349;50.904;6.136;2023-06-10T12:02:15;28.90;99.90
12568;DHT22;6349;50.904;6.136;2023-06-10T12:04:16;29.00;99.90
12568;DHT22;6349;50.904;6.136;2023-06-10T12:06:18;29.00;99.90
12568;DHT22;6349;50.904;6.136;2023-06-10T12:08:19;29.10;99.90
12568;DHT22;6349;50.904;6.136;2023-06-10T12:10:19;29.20;99.90
12568;DHT22;6349;50.904;6.136;2023-06-10T12:12:20;29.10;99.90
12568;DHT22;6349;50.904;6.136;2023-06-10T12:14:56;29.00;99.90
12568;DHT22;6349;50.904;6.136;2023-06-10T12:16:57;29.00;99.90
12568;DHT22;6349;50.904;6.136;2023-06-10T12:19:04;28.90;99.90
12568;DHT22;6349;50.904;6.136;2023-06-10T12:21:19;29.00;99.90
12568;DHT22;6349;50.904;6.136;2023-06-10T12:23:20;28.90;99.90
12568;DHT22;6349;50.904;6.136;2023-06-10T12:25:26;28.90;99.90
12568;DHT22;6349;50.904;6.136;2023-06-10T12:27:27;29.00;99.90
12568;DHT22;6349;50.904;6.136;2023-06-10T12:29:30;29.00;99.90
12568;DHT22;6349;50.904;6.136;2023-06-10T12:31:31;29.10;99.90
12568;DHT22;6349;50.904;6.136;2023-06-10T12:33:38;29.00;99.90
12568;DHT22;6349;50.904;6.136;2023-06-10T12:35:47;29.00;99.90
12568;DHT22;6349;50.904;6.136;2023-06-10T12:38:02;28.90;99.90
12568;DHT22;6349;50.904;6.136;2023-06-10T12:40:05;29.00;99.90
12568;DHT22;6349;50.904;6.136;2023-06-10T12:42:09;29.00;99.90
12568;DHT22;6349;50.904;6.136;2023-06-10T12:44:10;29.10;99.90
12568;DHT22;6349;50.904;6.136;2023-06-10T12:46:11;29.20;99.90
12568;DHT22;6349;50.904;6.136;2023-06-10T12:48:23;29.20;99.90
12568;DHT22;6349;50.904;6.136;2023-06-10T12:50:26;29.30;99.90
12568;DHT22;6349;50.904;6.136;2023-06-10T12:52:26;29.50;99.90
12568;DHT22;6349;50.904;6.136;2023-06-10T12:54:27;29.60;99.90
12568;DHT22;6349;50.904;6.136;2023-06-10T12:56:28;29.70;99.90
12568;DHT22;6349;50.904;6.136;2023-06-10T12:58:29;29.80;99.90
12568;DHT22;6349;50.904;6.136;2023-06-10T13:00:30;29.90;99.90
12568;DHT22;6349;50.904;6.136;2023-06-10T13:02:31;30.00;99.90
12568;DHT22;6349;50.904;6.136;2023-06-10T13:04:32;30.00;99.90
12568;DHT22;6349;50.904;6.136;2023-06-10T13:06:32;30.10;99.90
12568;DHT22;6349;50.904;6.136;2023-06-10T13:08:36;30.20;99.90
12568;DHT22;6349;50.904;6.136;2023-06-10T13:10:37;30.30;99.90
12568;DHT22;6349;50.904;6.136;2023-06-10T13:12:38;30.30;99.90
12568;DHT22;6349;50.904;6.136;2023-06-10T13:14:38;30.30;99.90